x

South Santa Rosa Is. Ca (46069) Wave Buoy

3:50pm - Fri 27th Feb 2015 All times are PST. -8 hours from GMT.

  • Sig Wave height 9.5ft
  • Peak Period 10s
  • Average Period 6s
  • Wind
    25mph, 31mph gusts
  • Sea Temp 60°f
  • 空気 Temp 59°f
  • Sea Pressure 1008.9mb
  • South Santa Rosa Is. Ca
  • South Santa Rosa Is. Ca

More Historic Weather Station data

Upgrade to MSW Pro to gain access to the past 30 days of data for over 8000 Wavebouys and Weather Stations around the globe.

Join Pro

Comparision Forecast

View Surf forecast
   
Fri 02/27 3:50pm 9.5ft 10s 6s 25 31 mph 1008.9mb 60f 59f
2:50pm 9.5ft 10s 6s 25 29 mph 1009.3mb 60f 59f
1:50pm 9ft 10s 6s 27 34 mph 1009.6mb 60f 59f
12:50pm 9ft 10s 6s 25 34 mph 1010mb 60f 59f
11:50am 9.5ft 11s 6s 27 34 mph 1011.2mb 60f 59f
10:50am 10ft 11s 6s 25 34 mph 1011.4mb 60f 59f
9:50am 10.5ft 11s 6s 25 29 mph 1011.5mb 60f 58f
8:50am 10.5ft 10s 7s 29 38 mph 1010.9mb 60f 58f
7:50am 11ft 10s 6s 29 38 mph 1009.8mb 60f 59f
6:50am 11ft 9s 7s 27 34 mph 1009.7mb 60f 58f
5:50am 10ft 9s 6s 29 34 mph 1009.2mb 60f 58f
4:50am 10.5ft 11s 6s 29 34 mph 1009mb 60f 58f
3:50am 10.5ft 10s 7s 29 36 mph 1009mb 60f 59f
2:50am 10ft 10s 6s 25 31 mph 1009.7mb 60f 59f
1:50am 9ft 11s 6s 29 38 mph 1009.6mb 60f 58f
12:50am 10ft 9s 7s 27 34 mph 1009.7mb 60f 59f
Thu 02/26 11:50pm 9.5ft 11s 7s 25 31 mph 1010.1mb 60f 59f
10:50pm 9.5ft 10s 6s 27 29 mph 1010.5mb 60f 59f
9:50pm 8.5ft 7s 6s 25 29 mph 1010.9mb 60f 59f
8:50pm 8.5ft 8s 6s 25 31 mph 1010.4mb 60f 59f
7:50pm 9ft 9s 6s 27 34 mph 1010mb 60f 59f
6:50pm 9ft 11s 6s 29 36 mph 1009.9mb 60f 60f
5:50pm 9ft 7s 6s 31 36 mph 1009.6mb 60f 60f
4:50pm 8.5ft 9s 6s 29 34 mph 1009.4mb 60f 60f
3:50pm 9.5ft 7s 6s 31 36 mph 1009.7mb 60f 59f
2:50pm 9ft 6s 6s 34 38 mph 1009.8mb 60f 59f
1:50pm 8.5ft 7s 6s 29 36 mph 1010.8mb 60f 59f
12:50pm 9ft 9s 6s 27 31 mph 1012mb 60f 59f
11:50am 9ft 8s 6s 27 31 mph 1012.9mb 60f 59f
10:50am 8ft 8s 6s 29 34 mph 1013.8mb 60f 58f
9:50am 8.5ft 8s 6s 29 34 mph 1013.6mb 60f 58f
8:50am 9ft 8s 6s 25 29 mph 1014.1mb 60f 58f
7:50am 9ft 8s 6s 25 31 mph 1013.7mb 60f 58f
6:50am 8ft 8s 6s 22 27 mph 1013.7mb 60f 58f
5:50am 8.5ft 7s 6s 25 29 mph 1013.9mb 60f 58f
4:50am 8ft 8s 6s 22 27 mph 1013.9mb 60f 58f
3:50am 8ft 6s 5s 27 31 mph 1013.8mb 60f 58f
2:50am 7ft 8s 6s 27 31 mph 1013.8mb 60f 59f
1:50am 8ft 7s 6s 20 25 mph 1014.5mb 60f 59f
12:50am 8ft 7s 6s 22 31 mph 1015.4mb 60f 59f
Wed 02/25 11:50pm 8ft 7s 6s 18 22 mph 1016.5mb 60f 59f
10:50pm 8ft 7s 6s 22 27 mph 1016.7mb 61f 59f
9:50pm 8ft 7s 6s 25 29 mph 1016.3mb 61f 59f
8:50pm 8ft 7s 6s 18 22 mph 1016.8mb 61f 59f
7:50pm 7ft 7s 5s 27 31 mph 1016.8mb 61f 59f
6:50pm 7ft 7s 6s 25 29 mph 1016.4mb 61f 59f
5:50pm 7.5ft 7s 6s 20 22 mph 1016.1mb 61f 59f
4:50pm 7ft 7s 5s 22 29 mph 1016.7mb 61f 59f
3:50pm 7ft 7s 5s 27 34 mph 1016.9mb 61f 59f
2:50pm 7ft 7s 5s 25 29 mph 1018mb 61f 59f
1:50pm 7ft 6s 5s 22 27 mph 1018.5mb 61f 59f
12:50pm 6.5ft 6s 5s 25 31 mph 1019.4mb 61f 59f
11:50am 7ft 7s 5s 22 27 mph 1020.4mb 61f 59f
10:50am 7ft 11s 6s 20 25 mph 1021mb 61f 59f
9:50am 7ft 6s 6s 16 20 mph 1021.7mb 61f 58f
8:50am 7ft 7s 6s 20 22 mph 1021.9mb 61f 59f
7:50am 7ft 12s 6s 27 31 mph 1021.1mb 61f 59f
6:50am 6.5ft 6s 5s 27 31 mph 1020.5mb 61f 60f
5:50am 6ft 6s 5s 22 27 mph 1020.7mb 61f 59f
4:50am 6ft 6s 5s 22 27 mph 1020.8mb 61f 59f
3:50am 7ft 7s 5s 22 27 mph 1021.1mb 61f 60f
2:50am 7ft 13s 6s 22 29 mph 1021.2mb 61f 60f
1:50am 6.5ft 6s 5s 20 25 mph 1021.8mb 61f 60f
12:50am 7.5ft 13s 6s 22 27 mph 1021.9mb 61f 60f
Tue 02/24 11:50pm 7ft 6s 6s 22 27 mph 1022.3mb 61f 60f
10:50pm 7ft 13s 6s 22 27 mph 1022.2mb 61f 61f
9:50pm 6ft 14s 5s 22 27 mph 1022.6mb 61f 60f
8:50pm 6ft 14s 5s 22 27 mph 1022.6mb 61f 60f
7:50pm 6ft 12s 5s 22 27 mph 1022.7mb 61f 60f
6:50pm 5.5ft 13s 5s 20 25 mph 1022.7mb 61f 60f
5:50pm 5ft 13s 5s 22 25 mph 1022.3mb 61f 59f
4:50pm 5ft 14s 5s 22 27 mph 1021.7mb 61f 60f
3:50pm 5.5ft 14s 6s 20 25 mph 1021.8mb 61f 61f
2:50pm 5.5ft 14s 6s 18 20 mph 1022.2mb 61f 60f
1:50pm 6ft 14s 5s 20 25 mph 1022.7mb 61f 60f
12:50pm 5.5ft 13s 5s 22 27 mph 1023.1mb 61f 60f
11:50am 5.5ft 14s 5s 22 27 mph 1024.3mb 61f 60f
10:50am 5ft 13s 6s 20 25 mph 1024.9mb 61f 60f
9:50am 5ft 14s 6s 18 20 mph 1025.1mb 60f 59f
8:50am 5ft 14s 7s 16 20 mph 1025.1mb 60f 59f
7:50am 5ft 14s 7s 16 18 mph 1024.4mb 60f 60f
6:50am 4.5ft 14s 7s 16 18 mph 1023.7mb 60f 59f
5:50am 5.5ft 14s 8s 13 18 mph 1022.9mb 60f 58f
4:50am 5ft 14s 8s 16 18 mph 1023mb 60f 58f
3:50am 5ft 15s 8s 11 13 mph 1022.5mb 60f 57f
2:50am 4.5ft 14s 7s 11 13 mph 1021.9mb 60f 57f
1:50am 5ft 15s 7s 9 11 mph 1022.1mb 61f 57f
12:50am 5ft 15s 7s 9 13 mph 1022mb 61f 58f